Time;durP1;ratioP1;P1;durP2;ratioP2;P2;SDS_P1;SDS_P2;PMS_P1;PMS_P2;Temp;Humidity;BMP_temperature;BMP_pressure;BME280_temperature;BME280_humidity;BME280_pressure;Samples;Min_cycle;Max_cycle;Signal;HPM_P1;HPM_P2
2023/02/20 00:00:23;;;;;;;2.50;1.90;;;;;;;2.70;100.00;97353.77;110180;1242;69874;-66
2023/02/20 00:03:14;;;;;;;2.70;2.30;;;;;;;2.66;100.00;97354.11;110187;1242;59707;-66
2023/02/20 00:05:43;;;;;;;3.00;2.00;;;;;;;2.62;100.00;97356.33;110161;1242;59666;-65
2023/02/20 00:08:12;;;;;;;2.40;1.90;;;;;;;2.60;100.00;97353.16;110241;1242;70638;-66
2023/02/20 00:10:42;;;;;;;2.30;2.10;;;;;;;2.49;100.00;97352.23;110273;1240;69251;-66
2023/02/20 00:13:12;;;;;;;2.70;1.90;;;;;;;2.40;100.00;97362.75;110227;1242;69108;-67
2023/02/20 00:15:41;;;;;;;4.80;2.40;;;;;;;2.35;100.00;97368.64;110231;1242;59741;-66
2023/02/20 00:18:10;;;;;;;2.00;1.80;;;;;;;2.25;100.00;97370.05;110220;1242;59718;-66
2023/02/20 00:20:40;;;;;;;3.00;2.20;;;;;;;2.21;100.00;97378.48;110232;1242;71935;-66
2023/02/20 00:23:10;;;;;;;2.20;1.90;;;;;;;2.16;100.00;97384.71;110243;1240;69673;-67
2023/02/20 00:25:38;;;;;;;2.90;1.90;;;;;;;2.12;100.00;97388.63;110237;1242;69959;-67
2023/02/20 00:28:08;;;;;;;3.10;2.00;;;;;;;2.02;100.00;97404.30;110296;1242;59683;-67
2023/02/20 00:30:37;;;;;;;2.50;1.60;;;;;;;1.97;100.00;97410.36;110243;1242;59741;-67
2023/02/20 00:33:06;;;;;;;3.00;1.90;;;;;;;1.89;100.00;97414.61;110209;1242;71973;-67
2023/02/20 00:35:37;;;;;;;2.40;2.10;;;;;;;1.84;100.00;97416.69;110219;1241;69451;-67
2023/02/20 00:38:06;;;;;;;3.10;2.00;;;;;;;1.83;100.00;97418.61;110248;1240;69705;-66
2023/02/20 00:40:35;;;;;;;2.40;1.70;;;;;;;1.81;100.00;97413.36;110188;1242;59670;-67
2023/02/20 00:43:04;;;;;;;2.90;1.80;;;;;;;1.76;100.00;97415.27;110244;1242;59699;-67
2023/02/20 00:45:36;;;;;;;3.10;1.90;;;;;;;1.73;100.00;97410.23;110194;1245;71398;-67
2023/02/20 00:48:05;;;;;;;2.80;2.00;;;;;;;1.70;100.00;97408.28;110235;1240;68671;-67
2023/02/20 00:50:34;;;;;;;2.80;1.90;;;;;;;1.62;100.00;97406.02;110171;1242;69406;-67
2023/02/20 00:53:03;;;;;;;3.30;2.20;;;;;;;1.55;100.00;97402.30;110211;1241;59679;-67
2023/02/20 00:55:32;;;;;;;3.40;2.30;;;;;;;1.49;100.00;97398.75;110176;1242;59688;-66
2023/02/20 00:58:02;;;;;;;3.50;2.50;;;;;;;1.41;100.00;97408.30;110172;1242;71973;-67
2023/02/20 01:00:32;;;;;;;3.60;2.80;;;;;;;1.37;100.00;97419.66;110161;1242;69555;-66
2023/02/20 01:03:02;;;;;;;3.30;2.40;;;;;;;1.31;100.00;97426.71;110057;1241;69258;-67
2023/02/20 01:05:33;;;;;;;4.00;2.70;;;;;;;1.27;100.00;97429.77;110159;1245;59706;-67
2023/02/20 01:08:02;;;;;;;4.00;2.80;;;;;;;1.26;100.00;97426.58;110189;1244;59762;-67
2023/02/20 01:10:31;;;;;;;4.80;3.30;;;;;;;1.23;99.84;97421.83;109992;1245;70680;-67
2023/02/20 01:13:00;;;;;;;4.00;2.50;;;;;;;1.22;99.89;97426.18;109837;1245;69374;-67
2023/02/20 01:15:30;;;;;;;3.70;3.10;;;;;;;1.17;99.71;97436.11;110070;1241;69668;-67
2023/02/20 01:18:00;;;;;;;5.40;3.30;;;;;;;1.12;99.37;97444.55;110030;1244;59721;-67
2023/02/20 01:20:29;;;;;;;3.70;2.80;;;;;;;1.09;99.25;97446.56;110101;1241;59834;-67
2023/02/20 01:23:00;;;;;;;6.40;3.70;;;;;;;1.05;98.93;97451.65;110127;1245;70870;-67
2023/02/20 01:25:31;;;;;;;5.70;3.70;;;;;;;1.01;98.87;97462.59;110168;1244;69370;-67
2023/02/20 01:28:00;;;;;;;4.60;3.60;;;;;;;1.04;98.82;97465.06;110156;1242;69889;-66
2023/02/20 01:30:30;;;;;;;5.50;3.50;;;;;;;1.02;98.73;97468.07;110067;1245;59710;-66
2023/02/20 01:33:00;;;;;;;4.30;3.20;;;;;;;1.04;98.64;97480.70;110192;1242;59820;-66
2023/02/20 01:35:32;;;;;;;5.00;3.70;;;;;;;1.03;98.26;97490.52;110188;1242;70529;-67
2023/02/20 01:38:05;;;;;;;;;;;;;;;1.04;97.50;97493.74;110263;1243;68507;-66
2023/02/20 01:40:36;;;;;;;4.50;3.20;;;;;;;1.06;97.97;97496.94;110248;1241;69389;-66
2023/02/20 01:43:06;;;;;;;7.60;3.80;;;;;;;1.02;96.89;97499.28;110294;1242;59668;-68
2023/02/20 01:45:37;;;;;;;5.60;3.80;;;;;;;1.04;96.99;97509.54;110149;1245;59677;-66
2023/02/20 01:48:20;;;;;;;5.50;4.10;;;;;;;1.00;95.75;97510.35;110128;1243;71407;-66
2023/02/20 01:50:59;;;;;;;5.10;3.60;;;;;;;1.00;96.17;97510.15;110146;1241;69300;-66
2023/02/20 01:53:32;;;;;;;6.60;4.00;;;;;;;1.01;95.74;97511.49;110093;1244;68687;-66
2023/02/20 01:56:07;;;;;;;7.30;4.10;;;;;;;1.01;95.88;97511.17;109884;1241;59686;-66
2023/02/20 01:58:44;;;;;;;5.00;4.20;;;;;;;0.97;93.72;97507.20;110105;1241;59766;-66
2023/02/20 02:01:14;;;;;;;6.40;4.40;;;;;;;0.95;94.71;97512.05;110175;1242;71386;-66
2023/02/20 02:03:54;;;;;;;7.20;5.00;;;;;;;0.93;93.16;97517.95;110220;1242;69214;-66
2023/02/20 02:06:24;;;;;;;7.10;4.60;;;;;;;0.92;92.40;97515.58;110219;1240;68343;-66
2023/02/20 02:08:59;;;;;;;5.20;3.70;;;;;;;0.88;92.15;97518.95;110066;1241;59679;-66
2023/02/20 02:11:28;;;;;;;6.80;4.40;;;;;;;0.89;93.29;97523.08;110193;1242;59727;-67
2023/02/20 02:13:59;;;;;;;6.00;4.40;;;;;;;0.84;93.68;97526.16;110091;1244;70970;-68
2023/02/20 02:16:48;;;;;;;5.60;4.00;;;;;;;0.80;92.86;97529.86;110135;1245;69236;-67
2023/02/20 02:20:01;;;;;;;5.10;4.40;;;;;;;0.76;92.59;97535.66;109765;1241;68395;-68
2023/02/20 02:22:56;;;;;;;5.50;4.40;;;;;;;0.71;91.78;97528.77;110216;1241;59760;-66
2023/02/20 02:25:47;;;;;;;5.70;4.30;;;;;;;0.64;90.98;97526.10;110187;1241;59750;-67
2023/02/20 02:28:30;;;;;;;6.30;4.40;;;;;;;0.58;91.93;97525.95;110118;1244;71241;-67
2023/02/20 02:31:28;;;;;;;6.20;4.30;;;;;;;0.46;91.44;97525.62;110142;1242;69065;-68
2023/02/20 02:34:27;;;;;;;6.80;4.10;;;;;;;0.35;91.85;97521.31;110177;1242;68607;-67
2023/02/20 02:37:15;;;;;;;5.30;4.00;;;;;;;0.23;91.08;97520.31;110169;1242;59705;-67
2023/02/20 02:39:48;;;;;;;7.20;4.40;;;;;;;0.16;91.43;97526.17;110121;1244;59652;-67
2023/02/20 02:42:33;;;;;;;5.20;3.80;;;;;;;0.07;90.98;97530.20;110109;1244;71040;-67
2023/02/20 02:45:30;;;;;;;6.30;4.50;;;;;;;-0.02;90.99;97531.33;110104;1245;68113;-67
2023/02/20 02:48:19;;;;;;;7.00;4.30;;;;;;;-0.05;91.37;97538.42;110177;1250;69108;-66
2023/02/20 02:50:53;;;;;;;6.00;4.10;;;;;;;-0.10;90.24;97544.05;110172;1245;59766;-66
2023/02/20 02:53:23;;;;;;;5.60;4.70;;;;;;;-0.13;90.75;97539.86;110124;1244;59744;-66
2023/02/20 02:55:53;;;;;;;5.80;4.50;;;;;;;-0.17;90.41;97546.33;110147;1244;71972;-66
2023/02/20 02:58:23;;;;;;;5.20;4.10;;;;;;;-0.21;90.89;97549.33;110153;1244;68297;-66
2023/02/20 03:01:01;;;;;;;6.90;4.20;;;;;;;-0.25;90.02;97548.23;110103;1244;68483;-66
2023/02/20 03:03:40;;;;;;;6.20;4.30;;;;;;;-0.28;90.09;97555.00;110152;1244;59701;-66
2023/02/20 03:06:17;;;;;;;6.70;4.40;;;;;;;-0.32;90.34;97551.70;110131;1244;59952;-65
2023/02/20 03:08:58;;;;;;;6.90;4.20;;;;;;;-0.36;89.90;97562.23;110057;1243;71508;-66
2023/02/20 03:11:34;;;;;;;6.60;4.60;;;;;;;-0.37;89.16;97568.61;110109;1245;69490;-66
2023/02/20 03:17:39;;;;;;;7.80;4.60;;;;;;;-0.47;89.86;97573.66;110084;1242;59745;-65
2023/02/20 03:20:15;;;;;;;4.50;4.00;;;;;;;-0.51;90.22;97585.91;110100;1244;59734;-65
2023/02/20 03:23:00;;;;;;;6.70;4.60;;;;;;;-0.50;88.69;97587.44;110151;1244;71923;-66
2023/02/20 03:25:39;;;;;;;5.10;4.00;;;;;;;-0.50;88.79;97596.02;110123;1243;69287;-66
2023/02/20 03:28:16;;;;;;;6.40;4.40;;;;;;;-0.53;88.30;97600.19;110103;1244;68524;-66
2023/02/20 03:30:55;;;;;;;6.00;4.50;;;;;;;-0.57;88.95;97602.86;109800;1245;59724;-66
2023/02/20 03:45:41;;;;;;;6.40;4.00;;;;;;;-0.79;89.66;97609.57;110112;1245;59683;-66
2023/02/20 03:48:21;;;;;;;4.20;3.10;;;;;;;-0.85;90.27;97607.15;109825;1245;59746;-66
2023/02/20 03:50:51;;;;;;;5.90;4.10;;;;;;;-0.88;89.86;97605.34;110093;1244;71206;-66
2023/02/20 03:53:24;;;;;;;5.10;3.80;;;;;;;-0.90;90.21;97603.83;109813;1246;69081;-66
2023/02/20 03:55:58;;;;;;;8.30;4.70;;;;;;;-0.91;89.87;97610.38;110059;1245;68517;-65
2023/02/20 03:58:33;;;;;;;4.60;3.10;;;;;;;-0.91;90.14;97618.27;110039;1244;59722;-66
2023/02/20 04:01:07;;;;;;;6.20;4.50;;;;;;;-0.90;89.34;97614.09;110062;1241;59762;-65
2023/02/20 04:03:40;;;;;;;5.40;4.40;;;;;;;-0.89;89.25;97616.31;110145;1244;71397;-65
2023/02/20 04:06:11;;;;;;;6.00;3.30;;;;;;;-0.89;89.18;97624.53;110186;1241;69351;-66
2023/02/20 04:09:06;;;;;;;5.30;3.50;;;;;;;-0.81;88.03;97634.92;110133;1241;69801;-66
2023/02/20 04:11:56;;;;;;;9.30;5.00;;;;;;;-0.76;87.60;97637.56;110149;1245;59708;-66
2023/02/20 04:14:30;;;;;;;7.40;4.90;;;;;;;-0.80;88.33;97643.31;110153;1245;59682;-66
2023/02/20 04:17:08;;;;;;;6.20;4.30;;;;;;;-0.84;88.46;97645.45;110061;1247;69717;-66
2023/02/20 04:19:38;;;;;;;7.70;4.40;;;;;;;-0.87;88.70;97658.19;109777;1245;68332;-66
2023/02/20 04:22:13;;;;;;;5.60;4.20;;;;;;;-0.86;88.61;97664.34;109932;1245;69292;-66
2023/02/20 04:24:53;;;;;;;5.40;4.10;;;;;;;-0.91;88.84;97668.54;109800;1245;59751;-65
2023/02/20 04:27:26;;;;;;;9.20;4.70;;;;;;;-0.96;89.15;97665.93;110155;1245;59811;-66
2023/02/20 04:29:57;;;;;;;5.80;4.00;;;;;;;-0.96;89.08;97670.72;110151;1245;72225;-67
2023/02/20 04:32:27;;;;;;;7.80;4.30;;;;;;;-0.97;89.67;97666.64;110116;1245;68504;-68
2023/02/20 04:34:56;;;;;;;5.50;3.90;;;;;;;-0.99;89.75;97670.95;110265;1245;69277;-65
2023/02/20 04:37:26;;;;;;;7.60;4.50;;;;;;;-1.00;89.80;97675.77;110201;1245;59689;-67
2023/02/20 04:39:56;;;;;;;6.20;4.40;;;;;;;-1.03;90.35;97685.92;110166;1241;59698;-66
2023/02/20 04:42:26;;;;;;;6.40;4.50;;;;;;;-1.05;90.57;97683.55;110208;1242;70877;-66
2023/02/20 04:44:56;;;;;;;6.10;4.10;;;;;;;-1.07;90.39;97678.13;110129;1245;70171;-66
2023/02/20 04:47:27;;;;;;;5.10;4.10;;;;;;;-1.06;90.38;97682.75;110182;1241;69465;-66
2023/02/20 04:49:57;;;;;;;6.10;4.60;;;;;;;-1.09;90.38;97682.80;110332;1245;59665;-66
2023/02/20 04:52:28;;;;;;;7.60;4.00;;;;;;;-1.09;90.29;97686.73;110177;1240;59747;-66
2023/02/20 04:54:57;;;;;;;7.80;5.00;;;;;;;-1.13;90.55;97692.96;110143;1241;71374;-66
2023/02/20 04:57:26;;;;;;;6.90;3.80;;;;;;;-1.13;90.56;97694.70;110236;1242;69809;-66
2023/02/20 04:59:56;;;;;;;5.10;3.90;;;;;;;-1.10;89.94;97693.42;110307;1241;69263;-66
2023/02/20 05:02:25;;;;;;;6.30;3.90;;;;;;;-1.09;89.97;97697.17;110193;1244;59690;-66
2023/02/20 05:04:55;;;;;;;7.30;5.20;;;;;;;-1.04;89.41;97701.52;110212;1244;59720;-66
2023/02/20 05:07:24;;;;;;;7.40;4.80;;;;;;;-1.04;89.69;97701.68;110195;1242;71987;-66
2023/02/20 05:09:53;;;;;;;11.80;6.10;;;;;;;-1.04;90.10;97701.69;110261;1242;68222;-66
2023/02/20 05:12:22;;;;;;;7.10;4.90;;;;;;;-1.06;90.03;97701.56;110346;1240;68495;-66
2023/02/20 05:14:51;;;;;;;6.00;4.50;;;;;;;-1.04;89.73;97702.35;110323;1242;59745;-66
2023/02/20 05:17:24;;;;;;;6.50;5.60;;;;;;;-1.00;89.41;97706.90;110181;1244;59740;-66
2023/02/20 05:19:53;;;;;;;6.10;4.50;;;;;;;-0.95;89.16;97718.11;110235;1242;72345;-66
2023/02/20 05:22:22;;;;;;;8.20;5.50;;;;;;;-0.94;88.77;97725.75;110240;1241;68550;-66
2023/02/20 05:24:51;;;;;;;8.00;5.10;;;;;;;-0.89;88.32;97731.80;110257;1242;69276;-66
2023/02/20 05:27:22;;;;;;;7.20;4.90;;;;;;;-0.90;88.84;97734.41;110323;1242;59668;-66
2023/02/20 05:29:57;;;;;;;10.30;5.50;;;;;;;-0.91;88.58;97742.46;110225;1242;59677;-66
2023/02/20 05:32:29;;;;;;;7.40;4.90;;;;;;;-0.88;88.14;97744.80;110184;1246;71200;-66
2023/02/20 05:34:58;;;;;;;6.30;4.40;;;;;;;-0.88;87.92;97760.02;110181;1243;68500;-66
2023/02/20 05:37:30;;;;;;;6.60;4.70;;;;;;;-0.86;87.90;97765.98;110215;1240;69702;-66
2023/02/20 05:40:05;;;;;;;10.20;5.30;;;;;;;-0.85;88.07;97761.85;110186;1241;59746;-66
2023/02/20 05:42:34;;;;;;;7.60;5.20;;;;;;;-0.85;88.07;97762.70;110199;1242;59633;-66
2023/02/20 05:45:07;;;;;;;8.50;5.40;;;;;;;-0.81;87.48;97760.71;110202;1242;71308;-66
2023/02/20 05:47:37;;;;;;;7.70;5.40;;;;;;;-0.80;87.97;97777.14;110218;1242;68227;-66
2023/02/20 05:50:06;;;;;;;6.10;4.90;;;;;;;-0.78;87.24;97787.02;110233;1241;68903;-66
2023/02/20 05:52:35;;;;;;;8.80;4.90;;;;;;;-0.75;87.34;97793.45;110193;1242;59711;-66
2023/02/20 05:55:05;;;;;;;9.20;5.40;;;;;;;-0.72;87.07;97801.78;110243;1242;59977;-66
2023/02/20 05:57:34;;;;;;;9.10;5.20;;;;;;;-0.67;87.21;97810.05;110268;1241;70662;-66
2023/02/20 06:00:04;;;;;;;5.70;4.10;;;;;;;-0.67;87.14;97818.80;110241;1240;69071;-66
2023/02/20 06:02:39;;;;;;;6.90;4.70;;;;;;;-0.63;87.07;97826.23;110160;1242;68792;-66
2023/02/20 06:05:08;;;;;;;10.40;5.20;;;;;;;-0.60;87.18;97841.91;110181;1242;59678;-66
2023/02/20 06:07:37;;;;;;;6.00;4.60;;;;;;;-0.58;86.96;97853.34;110132;1242;59749;-66
2023/02/20 06:10:06;;;;;;;6.10;4.90;;;;;;;-0.53;86.13;97857.16;110174;1242;71403;-66
2023/02/20 06:12:35;;;;;;;7.70;5.30;;;;;;;-0.49;86.62;97860.36;110179;1240;68814;-66
2023/02/20 06:15:05;;;;;;;6.70;4.80;;;;;;;-0.46;86.07;97863.70;110162;1242;69545;-66
2023/02/20 06:17:33;;;;;;;9.40;5.00;;;;;;;-0.38;85.65;97871.76;110195;1247;59712;-66
2023/02/20 06:20:03;;;;;;;8.00;5.00;;;;;;;-0.36;85.61;97881.13;110237;1242;60050;-66
2023/02/20 06:22:32;;;;;;;5.80;4.40;;;;;;;-0.31;85.17;97881.02;110233;1242;71308;-66
2023/02/20 06:25:01;;;;;;;7.40;4.40;;;;;;;-0.29;85.10;97870.53;110173;1242;69807;-66
2023/02/20 06:27:29;;;;;;;8.50;4.80;;;;;;;-0.22;85.41;97877.07;110210;1242;69468;-66
2023/02/20 06:29:58;;;;;;;7.00;4.40;;;;;;;-0.20;84.79;97875.46;110200;1242;59675;-66
2023/02/20 06:32:27;;;;;;;9.40;5.20;;;;;;;-0.13;84.51;97881.48;110190;1240;59753;-66
2023/02/20 06:34:56;;;;;;;7.40;5.30;;;;;;;-0.08;84.03;97885.14;110287;1240;71190;-66
2023/02/20 06:37:24;;;;;;;9.20;5.60;;;;;;;0.00;83.84;97890.26;110219;1247;68328;-67
2023/02/20 06:39:53;;;;;;;10.80;5.70;;;;;;;0.10;83.78;97897.40;110211;1241;69655;-67
2023/02/20 06:42:22;;;;;;;10.80;6.60;;;;;;;0.13;83.58;97904.70;110224;1242;59628;-67
2023/02/20 06:44:51;;;;;;;10.20;5.60;;;;;;;0.12;83.32;97908.15;110223;1240;59700;-67
2023/02/20 06:47:20;;;;;;;5.60;5.00;;;;;;;0.17;83.24;97913.35;110151;1241;71888;-67
2023/02/20 06:49:49;;;;;;;10.10;5.50;;;;;;;0.23;83.12;97912.87;110170;1242;70157;-67
2023/02/20 06:52:18;;;;;;;8.00;5.50;;;;;;;0.31;82.76;97920.57;110159;1243;69685;-67
2023/02/20 06:54:47;;;;;;;8.70;5.20;;;;;;;0.42;82.06;97923.55;110161;1243;59674;-67
2023/02/20 06:57:15;;;;;;;10.60;5.20;;;;;;;0.57;81.79;97931.44;110239;1241;59751;-67
2023/02/20 06:59:46;;;;;;;7.60;4.50;;;;;;;0.69;81.31;97937.65;110200;1241;71467;-67
2023/02/20 07:02:16;;;;;;;7.00;5.60;;;;;;;0.82;80.29;97940.59;110229;1242;69628;-67
2023/02/20 07:04:49;;;;;;;7.70;5.50;;;;;;;0.98;80.80;97945.65;110204;1241;69701;-67
2023/02/20 07:07:17;;;;;;;8.00;5.50;;;;;;;1.15;81.02;97950.02;110239;1242;59778;-66
2023/02/20 07:09:46;;;;;;;6.80;5.00;;;;;;;1.23;79.12;97953.42;110243;1250;59678;-68
2023/02/20 07:12:15;;;;;;;8.70;4.60;;;;;;;1.18;77.64;97955.79;110223;1241;71361;-66
2023/02/20 07:14:43;;;;;;;6.80;5.00;;;;;;;1.07;77.24;97963.27;110162;1241;68156;-67
2023/02/20 07:17:12;;;;;;;9.30;4.90;;;;;;;1.07;77.83;97961.05;110164;1242;69245;-67
2023/02/20 07:19:41;;;;;;;7.80;5.00;;;;;;;1.20;78.18;97961.56;110224;1242;60087;-66
2023/02/20 07:22:10;;;;;;;8.80;5.70;;;;;;;1.13;77.02;97958.66;110217;1242;59685;-66
2023/02/20 07:24:40;;;;;;;6.40;4.50;;;;;;;1.04;77.46;97957.34;110236;1247;71595;-68
2023/02/20 07:27:12;;;;;;;7.80;5.40;;;;;;;0.87;77.70;97956.23;110224;1242;68727;-68
2023/02/20 07:29:45;;;;;;;8.70;5.20;;;;;;;0.90;77.80;97964.91;110204;1249;69864;-68
2023/02/20 07:32:19;;;;;;;5.90;5.00;;;;;;;1.13;77.59;97972.22;110204;1242;59684;-67
2023/02/20 07:34:49;;;;;;;11.00;5.60;;;;;;;1.37;75.63;97977.41;110253;1249;59685;-67
2023/02/20 07:37:32;;;;;;;6.70;4.60;;;;;;;1.82;74.38;97978.92;110273;1243;71262;-67
2023/02/20 07:40:01;;;;;;;7.10;5.30;;;;;;;2.34;73.28;97976.50;110193;1242;69808;-66
2023/02/20 07:42:31;;;;;;;7.20;5.00;;;;;;;2.80;70.36;97978.86;110178;1242;69662;-67
2023/02/20 07:45:10;;;;;;;6.40;4.60;;;;;;;2.90;68.03;97975.08;107173;1242;3953836;-67
2023/02/20 07:47:38;;;;;;;5.70;3.80;;;;;;;3.20;67.76;97975.60;110218;1243;59649;-67
2023/02/20 07:50:08;;;;;;;6.20;4.80;;;;;;;3.53;67.38;97973.40;110158;1242;71913;-67
2023/02/20 07:52:36;;;;;;;5.60;4.20;;;;;;;4.30;66.61;97978.34;110216;1242;69125;-67
2023/02/20 07:55:05;;;;;;;7.40;4.20;;;;;;;5.10;65.78;97982.90;110210;1242;69300;-67
2023/02/20 07:57:36;;;;;;;8.90;4.70;;;;;;;5.36;61.50;97981.29;110214;1243;59678;-67
2023/02/20 08:00:05;;;;;;;5.80;3.70;;;;;;;5.15;60.36;97975.08;110184;1243;59622;-67
2023/02/20 08:02:40;;;;;;;6.90;4.00;;;;;;;5.11;58.73;97985.94;110172;1244;71306;-67
2023/02/20 08:05:09;;;;;;;6.40;4.30;;;;;;;5.12;59.58;97991.98;110183;1242;69795;-67
2023/02/20 08:07:44;;;;;;;7.60;4.30;;;;;;;5.48;58.36;97997.52;110154;1244;69899;-67
2023/02/20 08:10:15;;;;;;;6.70;3.70;;;;;;;6.11;58.19;97993.55;110214;1242;59689;-67
2023/02/20 08:12:44;;;;;;;6.60;4.30;;;;;;;6.28;55.76;97995.91;110209;1244;59631;-68
2023/02/20 08:15:13;;;;;;;4.90;3.60;;;;;;;6.15;55.56;98003.05;110202;1250;71544;-68
2023/02/20 08:17:43;;;;;;;5.20;3.60;;;;;;;5.30;55.89;98011.06;110191;1245;69836;-68
2023/02/20 08:20:16;;;;;;;4.10;3.20;;;;;;;5.05;56.66;98009.70;110223;1248;69259;-67
2023/02/20 08:22:46;;;;;;;5.90;3.70;;;;;;;5.75;55.95;98003.13;110190;1242;59690;-67
2023/02/20 08:25:17;;;;;;;5.50;3.50;;;;;;;6.68;54.96;98004.21;110251;1242;59701;-69
2023/02/20 08:27:48;;;;;;;4.90;3.40;;;;;;;7.48;55.04;98002.89;110185;1242;70671;-66
2023/02/20 08:30:22;;;;;;;4.40;3.70;;;;;;;8.19;52.17;97999.72;110199;1242;68746;-67
2023/02/20 08:32:53;;;;;;;5.30;3.90;;;;;;;8.71;49.35;98003.79;110229;1243;68442;-67
2023/02/20 08:35:23;;;;;;;6.20;3.50;;;;;;;8.05;49.03;97999.03;110268;1245;59744;-67
2023/02/20 08:37:53;;;;;;;6.30;3.50;;;;;;;7.42;49.26;97998.34;110255;1241;59681;-67
2023/02/20 08:40:21;;;;;;;3.90;3.20;;;;;;;7.58;51.83;98001.98;110183;1249;71955;-67
2023/02/20 08:42:50;;;;;;;5.30;3.00;;;;;;;8.57;49.10;97998.86;110202;1243;68379;-67
2023/02/20 08:45:19;;;;;;;4.90;3.40;;;;;;;8.35;47.01;97997.42;110203;1250;69901;-67
2023/02/20 08:47:49;;;;;;;4.00;3.40;;;;;;;7.73;47.03;98000.73;110201;1242;59605;-67
2023/02/20 08:50:18;;;;;;;4.30;3.00;;;;;;;8.16;46.97;97995.52;110208;1242;59695;-67
2023/02/20 08:52:47;;;;;;;4.80;2.90;;;;;;;7.90;47.00;97994.81;110218;1242;71988;-67
2023/02/20 08:55:16;;;;;;;5.00;3.10;;;;;;;7.59;46.84;97991.76;110206;1242;69201;-68
2023/02/20 08:57:44;;;;;;;3.80;2.60;;;;;;;7.72;47.03;97994.16;110217;1241;69082;-67
2023/02/20 09:00:16;;;;;;;3.90;2.70;;;;;;;8.15;47.19;97991.43;110233;1245;59743;-67
2023/02/20 09:02:48;;;;;;;4.10;2.50;;;;;;;9.02;48.18;97993.34;110245;1242;59674;-67
2023/02/20 09:05:17;;;;;;;4.60;2.80;;;;;;;9.75;45.25;97985.98;110185;1241;71497;-68
2023/02/20 09:07:46;;;;;;;5.30;3.10;;;;;;;9.87;42.81;97981.22;110218;1240;69811;-68
2023/02/20 09:10:18;;;;;;;4.70;2.70;;;;;;;9.64;42.08;97982.92;110198;1243;69297;-68
2023/02/20 09:12:47;;;;;;;4.90;2.80;;;;;;;10.04;41.76;97977.77;110205;1241;59739;-68
2023/02/20 09:15:17;;;;;;;4.50;2.80;;;;;;;10.38;41.44;97974.94;110187;1242;59731;-68
2023/02/20 09:17:49;;;;;;;3.90;2.50;;;;;;;10.55;40.75;97977.54;110222;1243;70670;-68
2023/02/20 09:20:20;;;;;;;3.90;3.00;;;;;;;9.48;41.35;97976.73;110176;1241;68388;-68
2023/02/20 09:22:50;;;;;;;4.10;2.70;;;;;;;9.17;42.36;97977.71;110178;1243;68279;-68
2023/02/20 09:25:19;;;;;;;3.50;2.60;;;;;;;9.37;42.79;97980.58;110162;1242;59702;-68
2023/02/20 09:27:47;;;;;;;4.50;3.00;;;;;;;7.60;43.25;97976.89;110157;1249;59672;-67
2023/02/20 09:30:19;;;;;;;5.20;3.10;;;;;;;7.26;44.39;97980.38;110197;1241;71207;-67
2023/02/20 09:32:49;;;;;;;5.00;3.40;;;;;;;7.18;45.06;97982.73;110197;1242;68629;-67
2023/02/20 09:35:29;;;;;;;3.60;2.60;;;;;;;7.09;45.76;97984.02;110196;1241;69211;-67
2023/02/20 09:37:58;;;;;;;;;;;;;;;6.74;45.61;97981.58;110188;1242;59746;-67
2023/02/20 09:40:29;;;;;;;5.50;2.40;;;;;;;7.27;45.78;97975.67;110165;1243;59662;-67
2023/02/20 09:43:19;;;;;;;5.40;2.90;;;;;;;6.50;44.93;97967.49;110158;1242;71338;-68
2023/02/20 09:46:03;;;;;;;4.40;2.40;;;;;;;6.62;45.50;97965.72;110218;1242;69621;-68
2023/02/20 09:48:53;;;;;;;3.40;2.40;;;;;;;6.95;46.48;97956.15;110232;1242;69744;-68
2023/02/20 09:51:26;;;;;;;5.10;2.30;;;;;;;7.93;45.85;97956.14;110178;1247;59770;-68
2023/02/20 09:53:55;;;;;;;4.90;2.60;;;;;;;8.30;44.67;97958.83;110156;1242;59674;-68
2023/02/20 09:56:33;;;;;;;4.10;2.60;;;;;;;8.27;42.57;97954.46;110173;1242;71380;-67
2023/02/20 09:59:14;;;;;;;4.20;2.70;;;;;;;9.41;42.85;97954.41;110227;1249;69796;-67
2023/02/20 10:02:00;;;;;;;3.70;2.10;;;;;;;10.58;41.54;97952.27;110167;1242;69085;-67
2023/02/20 10:05:03;;;;;;;4.00;2.30;;;;;;;11.46;40.79;97950.44;110208;1249;59734;-67
2023/02/20 10:07:40;;;;;;;4.30;2.00;;;;;;;11.92;38.58;97949.40;110081;1243;59678;-67
2023/02/20 10:10:21;;;;;;;4.00;1.90;;;;;;;12.31;36.64;97942.66;110227;1242;71555;-68
2023/02/20 10:13:06;;;;;;;4.40;2.60;;;;;;;12.59;37.14;97938.70;110213;1242;68816;-68
2023/02/20 10:15:59;;;;;;;5.30;3.20;;;;;;;12.53;36.13;97932.85;110193;1242;68525;-68
2023/02/20 10:18:37;;;;;;;4.40;2.40;;;;;;;11.97;36.90;97918.66;110166;1242;59746;-67
2023/02/20 10:21:09;;;;;;;3.50;1.90;;;;;;;12.44;35.00;97923.58;110226;1243;60048;-68
2023/02/20 10:23:42;;;;;;;4.20;2.20;;;;;;;12.71;36.65;97927.15;110220;1242;71920;-69
2023/02/20 10:26:19;;;;;;;3.10;2.00;;;;;;;13.19;34.79;97918.54;110184;1242;69196;-67
2023/02/20 10:28:49;;;;;;;2.90;1.90;;;;;;;13.82;35.42;97909.34;110257;1247;68895;-69
2023/02/20 10:31:44;;;;;;;3.70;2.00;;;;;;;14.81;33.78;97902.15;110286;1242;59719;-69
2023/02/20 10:34:20;;;;;;;3.10;2.20;;;;;;;15.13;32.18;97896.44;110218;1240;59724;-68
2023/02/20 10:36:54;;;;;;;3.10;2.00;;;;;;;15.04;32.26;97894.65;110200;1241;71817;-68
2023/02/20 10:39:24;;;;;;;3.80;2.10;;;;;;;15.17;31.88;97898.64;110210;1241;69275;-66
2023/02/20 10:42:13;;;;;;;2.60;1.80;;;;;;;14.35;31.82;97899.23;110211;1249;69214;-68
2023/02/20 10:45:00;;;;;;;3.70;2.20;;;;;;;15.14;31.11;97887.11;110216;1249;59701;-68
2023/02/20 10:47:31;;;;;;;3.70;2.30;;;;;;;15.28;32.29;97885.20;110233;1242;59646;-67
2023/02/20 10:50:35;;;;;;;3.90;1.80;;;;;;;15.05;31.48;97879.42;110207;1241;70428;-68
2023/02/20 10:53:25;;;;;;;3.80;2.20;;;;;;;15.39;31.45;97872.73;110109;1242;69084;-69
2023/02/20 10:56:12;;;;;;;5.10;1.90;;;;;;;15.90;30.27;97865.91;110191;1249;69724;-66
2023/02/20 10:58:41;;;;;;;3.00;1.90;;;;;;;16.19;29.58;97860.45;110250;1242;59703;-69
2023/02/20 11:01:22;;;;;;;2.80;1.70;;;;;;;16.14;29.68;97856.55;110231;1243;59678;-68
2023/02/20 11:03:58;;;;;;;3.60;1.90;;;;;;;15.80;28.31;97842.48;110248;1241;71880;-67
2023/02/20 11:06:41;;;;;;;2.70;1.60;;;;;;;15.64;29.44;97838.92;110200;1242;69052;-69
2023/02/20 11:09:09;;;;;;;3.00;1.50;;;;;;;16.20;28.78;97846.33;110166;1249;68404;-68
2023/02/20 11:11:43;;;;;;;4.10;2.00;;;;;;;16.22;28.97;97844.21;110180;1242;59750;-68
2023/02/20 11:14:14;;;;;;;3.30;1.60;;;;;;;16.36;29.20;97839.63;110186;1242;59622;-67
2023/02/20 11:16:59;;;;;;;2.40;1.30;;;;;;;16.88;28.68;97838.87;110206;1241;69946;-68
2023/02/20 11:19:40;;;;;;;4.00;1.80;;;;;;;17.07;28.64;97837.94;110216;1249;69675;-67
2023/02/20 11:22:10;;;;;;;2.80;1.70;;;;;;;17.02;28.16;97833.02;110206;1240;69223;-69
2023/02/20 11:24:41;;;;;;;3.40;1.70;;;;;;;15.99;28.66;97828.86;110182;1242;60091;-69
2023/02/20 11:27:14;;;;;;;2.70;1.50;;;;;;;16.38;29.17;97825.21;110172;1242;59630;-68
2023/02/20 11:29:55;;;;;;;3.50;1.90;;;;;;;15.66;27.72;97819.20;110224;1242;72059;-70
2023/02/20 11:32:38;;;;;;;2.20;1.60;;;;;;;15.86;29.08;97811.39;110214;1243;69883;-69
2023/02/20 11:35:18;;;;;;;3.40;1.80;;;;;;;16.02;29.35;97807.31;110204;1242;69667;-69
2023/02/20 11:38:11;;;;;;;3.00;1.50;;;;;;;15.50;28.38;97804.36;110193;1241;59693;-69
2023/02/20 11:40:40;;;;;;;2.20;1.70;;;;;;;14.95;29.34;97811.63;110197;1242;59675;-69
2023/02/20 11:43:33;;;;;;;3.70;1.90;;;;;;;12.40;30.71;97807.14;110148;1249;70313;-68
2023/02/20 11:46:18;;;;;;;2.80;1.80;;;;;;;13.02;31.64;97798.73;110062;1242;69176;-68
2023/02/20 11:48:53;;;;;;;1.90;1.50;;;;;;;14.37;31.12;97790.12;110205;1244;67525;-69
2023/02/20 11:51:34;;;;;;;3.40;1.90;;;;;;;14.74;29.73;97794.64;110172;1242;59708;-68
2023/02/20 11:54:23;;;;;;;2.40;1.40;;;;;;;15.41;29.03;97792.84;110242;1241;59760;-69
2023/02/20 11:57:16;;;;;;;3.30;2.00;;;;;;;15.55;28.02;97792.50;110167;1242;70522;-68
2023/02/20 11:59:47;;;;;;;3.30;1.60;;;;;;;15.54;29.12;97787.65;110190;1242;69189;-71
2023/02/20 12:02:16;;;;;;;2.70;1.30;;;;;;;16.48;27.89;97778.95;110233;1243;70203;-70
2023/02/20 12:05:09;;;;;;;4.00;1.60;;;;;;;16.25;27.21;97776.03;110230;1242;59672;-69
2023/02/20 12:07:38;;;;;;;2.70;1.50;;;;;;;15.03;29.31;97778.63;110274;1242;59689;-69
2023/02/20 12:10:28;;;;;;;3.00;1.60;;;;;;;16.01;28.15;97777.54;110257;1242;71590;-68
2023/02/20 12:13:00;;;;;;;4.00;1.60;;;;;;;16.87;27.91;97779.95;110209;1243;69020;-69
2023/02/20 12:15:29;;;;;;;2.40;1.70;;;;;;;16.44;28.19;97773.85;110200;1242;68398;-69